createdAt,value
2018-09-19T00:02:17.141Z,13.50
2018-09-19T00:04:53.861Z,15.10
2018-09-19T00:06:59.559Z,13.25
2018-09-19T00:09:10.372Z,12.15
2018-09-19T00:11:20.698Z,10.70
2018-09-19T00:13:29.154Z,9.53
2018-09-19T00:15:37.062Z,7.78
2018-09-19T00:17:43.678Z,11.83
2018-09-19T00:19:49.917Z,10.48
2018-09-19T00:21:54.985Z,9.60
2018-09-19T00:23:59.729Z,10.68
2018-09-19T00:26:11.302Z,11.05
2018-09-19T00:28:25.304Z,9.75
2018-09-19T00:30:40.391Z,10.15
2018-09-19T00:32:47.757Z,8.50
2018-09-19T00:34:54.385Z,10.60
2018-09-19T00:37:12.077Z,9.90
2018-09-19T00:39:21.271Z,8.25
2018-09-19T00:41:26.878Z,8.13
2018-09-19T00:43:33.379Z,6.72
2018-09-19T00:45:40.308Z,9.80
2018-09-19T00:47:44.418Z,12.30
2018-09-19T00:49:49.417Z,9.88
2018-09-19T00:51:54.127Z,6.70
2018-09-19T00:54:02.067Z,7.47
2018-09-19T00:56:11.331Z,11.55
2018-09-19T00:58:15.635Z,8.25
2018-09-19T01:00:21.637Z,10.53
2018-09-19T01:02:28.083Z,8.68
2018-09-19T01:04:36.039Z,13.78
2018-09-19T01:06:40.341Z,12.63
2018-09-19T01:08:46.419Z,11.20
2018-09-19T01:10:50.403Z,18.87
2018-09-19T01:13:05.750Z,9.45
2018-09-19T01:15:12.913Z,11.03
2018-09-19T01:17:19.796Z,10.55
2018-09-19T01:19:31.836Z,13.60
2018-09-19T01:21:37.457Z,11.95
2018-09-19T01:23:43.650Z,14.45
2018-09-19T01:25:55.496Z,9.53
2018-09-19T01:28:12.326Z,11.00
2018-09-19T01:30:25.626Z,12.50
2018-09-19T01:32:36.122Z,11.22
2018-09-19T01:34:44.871Z,11.97
2018-09-19T01:36:52.130Z,15.88
2018-09-19T01:39:06.395Z,10.50
2018-09-19T01:41:11.352Z,11.00
2018-09-19T01:43:20.958Z,17.73
2018-09-19T01:45:25.995Z,10.70
2018-09-19T01:47:32.624Z,14.85
2018-09-19T01:49:38.364Z,12.00
2018-09-19T01:51:44.540Z,14.55
2018-09-19T01:53:52.295Z,12.15
2018-09-19T01:55:59.787Z,15.78
2018-09-19T01:58:07.570Z,10.75
2018-09-19T02:00:13.622Z,13.20
2018-09-19T02:02:21.033Z,12.50
2018-09-19T02:04:37.195Z,16.55
2018-09-19T02:06:53.554Z,11.75
2018-09-19T02:09:18.391Z,13.13
2018-09-19T02:11:27.393Z,15.83
2018-09-19T02:13:45.984Z,12.45
2018-09-19T02:15:49.995Z,15.83
2018-09-19T02:17:53.970Z,15.43
2018-09-19T02:19:58.337Z,12.03
2018-09-19T02:22:02.346Z,15.20
2018-09-19T02:24:06.252Z,12.30
2018-09-19T02:26:10.520Z,15.83
2018-09-19T02:28:14.553Z,16.95
2018-09-19T02:30:18.625Z,13.55
2018-09-19T02:32:22.511Z,15.23
2018-09-19T02:34:26.406Z,22.48
2018-09-19T02:36:30.665Z,18.05
2018-09-19T02:38:34.688Z,13.75
2018-09-19T02:40:38.590Z,20.00
2018-09-19T02:42:42.814Z,29.87
2018-09-19T02:44:47.160Z,46.68
2018-09-19T02:46:51.156Z,50.98
2018-09-19T02:48:55.035Z,50.15
2018-09-19T02:50:59.022Z,51.28
2018-09-19T02:53:02.955Z,46.85
2018-09-19T02:55:06.954Z,41.70
2018-09-19T02:57:12.741Z,39.60
2018-09-19T02:59:16.941Z,31.52
2018-09-19T03:01:20.873Z,27.20
2018-09-19T03:03:24.847Z,23.35
2018-09-19T03:05:28.727Z,18.92
2018-09-19T03:07:37.441Z,19.90
2018-09-19T03:09:42.139Z,15.25
2018-09-19T03:11:46.130Z,19.75
2018-09-19T03:13:50.033Z,13.60
2018-09-19T03:15:54.004Z,13.48
2018-09-19T03:17:57.959Z,17.50
2018-09-19T03:20:02.058Z,14.65
2018-09-19T03:23:30.541Z,14.85
2018-09-19T03:25:34.886Z,16.17
2018-09-19T03:27:40.676Z,15.45
2018-09-19T03:29:45.018Z,14.53
2018-09-19T03:31:49.104Z,15.95
2018-09-19T03:33:53.361Z,15.95
2018-09-19T03:35:57.935Z,18.48
2018-09-19T03:38:01.914Z,12.78
2018-09-19T03:40:05.959Z,17.12
2018-09-19T03:42:10.073Z,17.95
2018-09-19T03:44:14.148Z,15.93
2018-09-19T03:46:18.445Z,18.27
2018-09-19T03:48:22.392Z,17.50
2018-09-19T03:50:26.297Z,14.80
2018-09-19T03:52:30.249Z,14.45
2018-09-19T03:54:34.154Z,17.25
2018-09-19T03:56:38.130Z,17.12
2018-09-19T03:58:42.184Z,13.48
2018-09-19T04:00:47.777Z,20.25
2018-09-19T04:02:53.432Z,15.45
2018-09-19T04:04:57.479Z,15.23
2018-09-19T04:07:02.100Z,16.57
2018-09-19T04:09:10.764Z,19.77
2018-09-19T04:11:15.173Z,15.38
2018-09-19T04:13:19.829Z,19.92
2018-09-19T04:15:23.697Z,16.67
2018-09-19T04:17:27.659Z,21.27
2018-09-19T04:19:31.528Z,22.98
2018-09-19T04:21:35.552Z,19.40
2018-09-19T04:23:41.510Z,16.93
2018-09-19T04:25:46.319Z,17.35
2018-09-19T04:27:50.726Z,15.43
2018-09-19T04:29:55.161Z,19.00
2018-09-19T04:31:59.022Z,21.27
2018-09-19T04:34:03.617Z,17.62
2018-09-19T04:36:07.712Z,14.78
2018-09-19T04:38:12.524Z,15.80
2018-09-19T04:40:16.709Z,15.32
2018-09-19T04:42:22.126Z,15.45
2018-09-19T04:44:26.024Z,15.38
2018-09-19T04:46:29.991Z,17.45
2018-09-19T04:52:20.184Z,15.50
2018-09-19T04:54:24.107Z,19.20
2018-09-19T04:56:28.038Z,20.50
2018-09-19T04:58:32.018Z,18.95
2018-09-19T05:00:35.904Z,18.23
2018-09-19T05:02:42.963Z,16.32
2018-09-19T05:04:46.967Z,17.02
2018-09-19T05:06:50.964Z,14.55
2018-09-19T05:08:55.592Z,16.87
2018-09-19T05:10:59.541Z,15.60
2018-09-19T05:13:03.513Z,34.88
2018-09-19T05:15:07.584Z,24.92
2018-09-19T05:17:11.761Z,26.57
2018-09-19T05:19:15.911Z,32.00
2018-09-19T05:21:19.886Z,22.73
2018-09-19T05:23:23.791Z,28.25
2018-09-19T05:25:27.700Z,26.82
2018-09-19T05:27:31.674Z,24.95
2018-09-19T05:29:35.600Z,23.60
2018-09-19T05:31:39.759Z,30.45
2018-09-19T05:33:43.920Z,31.95
2018-09-19T05:35:48.060Z,24.10
2018-09-19T05:37:51.931Z,23.15
2018-09-19T05:39:55.783Z,23.67
2018-09-19T05:41:59.678Z,19.92
2018-09-19T05:44:03.655Z,16.10
2018-09-19T05:46:07.521Z,16.67
2018-09-19T05:48:12.136Z,17.20
2018-09-19T05:50:16.381Z,20.45
2018-09-19T05:52:24.616Z,19.55
2018-09-19T05:54:28.560Z,16.97
2018-09-19T05:56:32.481Z,19.27
2018-09-19T05:58:36.310Z,17.55
2018-09-19T06:00:40.370Z,22.10
2018-09-19T06:02:44.451Z,19.37
2018-09-19T06:04:48.562Z,21.52
2018-09-19T06:06:52.478Z,17.77
2018-09-19T06:08:56.419Z,22.98
2018-09-19T06:11:00.365Z,20.40
2018-09-19T06:13:04.262Z,14.40
2018-09-19T06:15:08.173Z,23.20
2018-09-19T06:17:12.202Z,18.55
2018-09-19T06:19:16.307Z,18.75
2018-09-19T06:21:20.325Z,18.25
2018-09-19T06:23:24.269Z,20.60
2018-09-19T06:25:28.136Z,22.85
2018-09-19T06:27:32.052Z,22.45
2018-09-19T06:29:35.947Z,19.05
2018-09-19T06:31:41.116Z,24.67
2018-09-19T06:33:45.212Z,16.65
2018-09-19T06:35:49.267Z,25.77
2018-09-19T06:37:53.162Z,22.22
2018-09-19T06:39:57.193Z,18.73
2018-09-19T06:42:01.056Z,18.50
2018-09-19T06:44:04.910Z,19.20
2018-09-19T06:46:08.797Z,18.25
2018-09-19T06:48:12.925Z,24.30
2018-09-19T06:50:16.933Z,21.60
2018-09-19T06:52:23.019Z,25.52
2018-09-19T06:54:28.765Z,23.70
2018-09-19T06:56:33.865Z,22.93
2018-09-19T06:58:38.187Z,26.90
2018-09-19T07:00:43.317Z,27.15
2018-09-19T07:02:59.997Z,23.77
2018-09-19T07:05:04.721Z,24.63
2018-09-19T07:07:09.979Z,25.37
2018-09-19T07:09:14.240Z,22.30
2018-09-19T07:11:21.319Z,18.62
2018-09-19T07:13:25.476Z,22.98
2018-09-19T07:15:30.595Z,23.90
2018-09-19T07:17:35.196Z,33.75
2018-09-19T07:19:39.160Z,24.15
2018-09-19T07:21:43.465Z,18.25
2018-09-19T07:23:47.527Z,20.50
2018-09-19T07:25:51.692Z,24.60
2018-09-19T07:27:55.978Z,18.73
2018-09-19T07:30:00.074Z,19.80
2018-09-19T07:32:04.027Z,19.90
2018-09-19T07:34:08.249Z,22.65
2018-09-19T07:36:12.278Z,23.60
2018-09-19T07:38:17.529Z,23.05
2018-09-19T07:40:22.432Z,25.40
2018-09-19T07:42:26.501Z,23.42
2018-09-19T07:44:30.582Z,17.05
2018-09-19T07:46:34.815Z,21.15
2018-09-19T07:48:39.003Z,23.22
2018-09-19T07:50:43.057Z,22.30
2018-09-19T07:52:47.268Z,23.73
2018-09-19T07:54:51.722Z,14.68
2018-09-19T07:56:55.844Z,19.25
2018-09-19T07:59:00.200Z,20.52
2018-09-19T08:06:04.584Z,18.92
2018-09-19T08:08:08.416Z,17.85
2018-09-19T08:10:12.281Z,15.93
2018-09-19T08:12:16.289Z,15.85
2018-09-19T08:14:20.735Z,21.27
2018-09-19T08:16:24.800Z,17.25
2018-09-19T08:18:28.742Z,24.15
2018-09-19T08:20:32.681Z,23.67
2018-09-19T08:22:36.658Z,20.90
2018-09-19T08:24:40.782Z,19.30
2018-09-19T08:26:44.733Z,20.72
2018-09-19T08:28:48.724Z,22.07
2018-09-19T08:30:53.012Z,19.27
2018-09-19T08:32:57.398Z,21.12
2018-09-19T08:35:01.328Z,20.65
2018-09-19T08:37:05.499Z,26.57
2018-09-19T08:39:10.526Z,22.70
2018-09-19T08:41:14.460Z,26.80
2018-09-19T08:43:18.567Z,20.95
2018-09-19T08:45:22.809Z,24.32
2018-09-19T08:47:26.687Z,20.27
2018-09-19T08:49:30.551Z,20.12
2018-09-19T08:51:34.373Z,21.85
2018-09-19T08:53:38.204Z,18.40
2018-09-19T08:55:42.259Z,20.57
2018-09-19T08:57:46.068Z,23.67
2018-09-19T08:59:51.115Z,21.65
2018-09-19T09:01:55.242Z,20.00
2018-09-19T09:05:02.000Z,18.77
2018-09-19T09:07:05.950Z,17.48
2018-09-19T09:09:09.876Z,21.35
2018-09-19T09:12:38.353Z,20.62
2018-09-19T09:14:42.271Z,19.20
2018-09-19T09:16:46.087Z,18.45
2018-09-19T09:18:49.957Z,24.27
2018-09-19T09:20:53.895Z,22.93
2018-09-19T09:22:57.879Z,19.12
2018-09-19T09:25:01.716Z,15.68
2018-09-19T09:27:05.610Z,15.03
2018-09-19T09:29:09.370Z,19.55
2018-09-19T09:31:13.246Z,18.80
2018-09-19T09:33:17.092Z,18.42
2018-09-19T09:35:22.172Z,21.82
2018-09-19T09:37:26.027Z,17.37
2018-09-19T09:39:30.142Z,18.95
2018-09-19T09:41:33.939Z,17.83
2018-09-19T09:43:37.819Z,16.07
2018-09-19T09:45:41.697Z,17.17
2018-09-19T09:47:45.593Z,16.45
2018-09-19T09:49:50.271Z,16.48
2018-09-19T09:51:55.221Z,15.53
2018-09-19T09:53:59.244Z,14.35
2018-09-19T09:56:03.108Z,17.90
2018-09-19T09:58:07.111Z,16.40
2018-09-19T10:00:11.196Z,14.55
2018-09-19T10:02:15.176Z,13.58
2018-09-19T10:04:19.189Z,13.18
2018-09-19T10:06:23.274Z,11.63
2018-09-19T10:08:27.217Z,15.75
2018-09-19T10:10:31.238Z,15.83
2018-09-19T10:12:35.151Z,13.43
2018-09-19T10:14:39.156Z,13.25
2018-09-19T10:16:43.282Z,13.78
2018-09-19T10:18:47.094Z,13.18
2018-09-19T10:20:51.062Z,14.33
2018-09-19T10:22:56.051Z,19.15
2018-09-19T10:24:59.879Z,13.13
2018-09-19T10:27:03.708Z,11.80
2018-09-19T10:29:07.529Z,15.53
2018-09-19T10:31:11.328Z,12.10
2018-09-19T10:33:15.142Z,17.90
2018-09-19T10:35:19.159Z,11.45
2018-09-19T10:37:23.053Z,12.40
2018-09-19T10:39:26.939Z,12.60
2018-09-19T10:41:30.762Z,19.15
2018-09-19T10:43:34.579Z,17.98
2018-09-19T10:45:38.403Z,16.45
2018-09-19T10:47:42.202Z,15.63
2018-09-19T10:49:46.010Z,11.90
2018-09-19T10:51:49.998Z,13.08
2018-09-19T10:53:53.998Z,10.98
2018-09-19T10:55:57.888Z,12.55
2018-09-19T10:58:01.855Z,12.20
2018-09-19T11:00:06.937Z,15.38
2018-09-19T11:02:10.992Z,14.83
2018-09-19T11:04:14.966Z,12.60
2018-09-19T11:06:18.988Z,13.72
2018-09-19T11:08:22.983Z,9.20
2018-09-19T11:10:27.056Z,8.73
2018-09-19T11:12:31.056Z,11.28
2018-09-19T11:14:34.911Z,8.98
2018-09-19T11:16:38.982Z,12.53
2018-09-19T11:19:01.653Z,15.58
2018-09-19T11:21:05.879Z,11.83
2018-09-19T11:23:09.741Z,16.00
2018-09-19T11:25:13.551Z,11.20
2018-09-19T11:27:17.579Z,14.98
2018-09-19T11:29:21.567Z,14.28
2018-09-19T11:31:25.790Z,14.33
2018-09-19T11:33:29.679Z,13.25
2018-09-19T11:35:33.511Z,13.15
2018-09-19T11:37:37.392Z,10.63
2018-09-19T11:39:41.297Z,11.50
2018-09-19T11:41:45.145Z,12.78
2018-09-19T11:43:49.068Z,13.60
2018-09-19T11:45:53.133Z,10.72
2018-09-19T11:47:57.330Z,9.55
2018-09-19T11:50:01.295Z,12.37
2018-09-19T11:52:05.474Z,9.50
2018-09-19T11:54:09.421Z,9.53
2018-09-19T11:56:13.334Z,12.28
2018-09-19T11:58:17.255Z,12.75
2018-09-19T12:00:21.508Z,13.53
2018-09-19T12:02:25.537Z,11.25
2018-09-19T12:05:32.492Z,11.97
2018-09-19T12:07:36.337Z,10.18
2018-09-19T12:09:40.215Z,12.03
2018-09-19T12:11:44.155Z,14.10
2018-09-19T12:13:48.063Z,14.95
2018-09-19T12:15:52.083Z,9.35
2018-09-19T12:17:56.952Z,12.07
2018-09-19T12:20:00.817Z,12.20
2018-09-19T12:22:04.631Z,6.92
2018-09-19T12:24:08.462Z,7.22
2018-09-19T12:26:12.295Z,9.70
2018-09-19T12:28:16.143Z,10.43
2018-09-19T12:30:20.074Z,10.32
2018-09-19T12:32:24.132Z,10.93
2018-09-19T12:34:28.025Z,8.88
2018-09-19T12:36:31.839Z,8.65
2018-09-19T12:38:35.650Z,8.75
2018-09-19T12:40:39.527Z,11.95
2018-09-19T12:42:43.356Z,10.90
2018-09-19T12:44:47.186Z,8.30
2018-09-19T12:46:51.594Z,13.93
2018-09-19T12:48:55.587Z,10.70
2018-09-19T12:50:59.536Z,10.63
2018-09-19T12:53:03.715Z,12.93
2018-09-19T12:55:07.615Z,10.85
2018-09-19T12:57:11.487Z,9.63
2018-09-19T12:59:15.327Z,8.98
2018-09-19T13:01:19.161Z,9.80
2018-09-19T13:03:23.631Z,11.75
2018-09-19T13:05:27.651Z,9.45
2018-09-19T13:07:31.638Z,11.50
2018-09-19T13:09:35.661Z,10.82
2018-09-19T13:11:39.901Z,10.03
2018-09-19T13:13:43.699Z,8.70
2018-09-19T13:15:47.508Z,8.80
2018-09-19T13:17:51.524Z,15.50
2018-09-19T13:19:55.513Z,11.90
2018-09-19T13:21:59.492Z,8.25
2018-09-19T13:24:03.377Z,9.03
2018-09-19T13:26:07.233Z,8.53
2018-09-19T13:28:11.044Z,9.58
2018-09-19T13:30:14.890Z,12.70
2018-09-19T13:32:18.761Z,8.15
2018-09-19T13:34:22.754Z,13.98
2018-09-19T13:36:26.616Z,9.88
2018-09-19T13:38:30.494Z,11.10
2018-09-19T13:40:34.483Z,9.00
2018-09-19T13:42:38.328Z,12.70
2018-09-19T13:44:42.254Z,12.65
2018-09-19T13:46:46.652Z,13.45
2018-09-19T13:48:58.349Z,12.43
2018-09-19T13:51:07.347Z,11.65
2018-09-19T13:53:11.172Z,12.23
2018-09-19T13:55:15.007Z,13.05
2018-09-19T13:57:18.994Z,14.75
2018-09-19T13:59:23.031Z,8.15
2018-09-19T14:01:26.967Z,12.73
2018-09-19T14:03:30.982Z,11.38
2018-09-19T14:05:34.991Z,11.95
2018-09-19T14:07:38.883Z,10.98
2018-09-19T14:09:42.982Z,9.70
2018-09-19T14:11:47.030Z,11.43
2018-09-19T14:13:51.139Z,10.32
2018-09-19T14:15:55.103Z,10.50
2018-09-19T14:17:59.027Z,11.93
2018-09-19T14:20:02.875Z,10.08
2018-09-19T14:22:47.404Z,12.37
2018-09-19T14:24:51.912Z,12.53
2018-09-19T14:26:55.487Z,8.93
2018-09-19T14:29:30.954Z,10.90
2018-09-19T14:31:34.257Z,11.03
2018-09-19T14:33:37.667Z,10.75
2018-09-19T14:35:41.167Z,9.88
2018-09-19T14:37:44.670Z,10.30
2018-09-19T14:39:48.123Z,11.05
2018-09-19T14:41:51.741Z,8.98
2018-09-19T14:43:55.485Z,13.10
2018-09-19T14:45:58.984Z,7.97
2018-09-19T14:48:02.318Z,10.28
2018-09-19T14:50:05.655Z,10.65
2018-09-19T14:52:08.986Z,11.20
2018-09-19T14:54:43.168Z,13.98
2018-09-19T14:56:46.468Z,12.35
2018-09-19T14:58:49.890Z,10.75
2018-09-19T15:00:54.424Z,11.28
2018-09-19T15:02:57.811Z,10.48
2018-09-19T15:05:01.236Z,10.28
2018-09-19T15:07:04.563Z,9.90
2018-09-19T15:09:09.397Z,9.33
2018-09-19T15:11:12.717Z,9.85
2018-09-19T15:13:16.099Z,11.30
2018-09-19T15:15:19.511Z,11.38
2018-09-19T15:17:22.942Z,12.43
2018-09-19T15:19:41.650Z,11.48
2018-09-19T15:21:44.969Z,15.48
2018-09-19T15:23:48.359Z,10.30
2018-09-19T15:25:51.872Z,14.15
2018-09-19T15:27:55.448Z,8.93
2018-09-19T15:30:01.726Z,10.05
2018-09-19T15:32:05.760Z,10.68
2018-09-19T15:34:09.068Z,10.20
2018-09-19T15:36:12.501Z,10.20
2018-09-19T15:38:15.741Z,10.13
2018-09-19T15:40:19.202Z,14.23
2018-09-19T15:42:37.196Z,9.00
2018-09-19T15:44:40.572Z,11.08
2018-09-19T15:46:43.918Z,12.33
2018-09-19T15:48:47.308Z,12.75
2018-09-19T15:50:50.779Z,9.60
2018-09-19T15:52:54.255Z,10.10
2018-09-19T15:54:57.647Z,7.35
2018-09-19T15:57:00.966Z,10.10
2018-09-19T15:59:04.275Z,7.92
2018-09-19T16:01:07.719Z,12.55
2018-09-19T16:03:11.016Z,13.53
2018-09-19T16:05:14.336Z,10.20
2018-09-19T16:07:18.025Z,8.35
2018-09-19T16:09:21.729Z,9.48
2018-09-19T16:11:25.432Z,13.30
2018-09-19T16:13:28.888Z,12.40
2018-09-19T16:15:32.379Z,10.28
2018-09-19T16:17:35.907Z,10.30
2018-09-19T16:19:39.351Z,13.80
2018-09-19T16:21:42.751Z,10.25
2018-09-19T16:23:46.063Z,9.90
2018-09-19T16:25:49.484Z,11.35
2018-09-19T16:27:53.052Z,10.10
2018-09-19T16:29:56.605Z,8.73
2018-09-19T16:31:59.942Z,13.62
2018-09-19T16:34:03.354Z,12.10
2018-09-19T16:36:06.714Z,10.18
2018-09-19T16:38:10.095Z,9.20
2018-09-19T16:40:13.387Z,7.55
2018-09-19T16:42:16.776Z,8.70
2018-09-19T16:44:20.188Z,8.55
2018-09-19T16:46:23.765Z,9.75
2018-09-19T16:48:27.321Z,7.22
2018-09-19T16:50:31.046Z,11.43
2018-09-19T16:52:34.365Z,11.00
2018-09-19T16:54:37.910Z,11.88
2018-09-19T16:56:41.300Z,10.60
2018-09-19T16:58:44.776Z,11.33
2018-09-19T17:00:48.044Z,12.58
2018-09-19T17:02:51.446Z,8.23
2018-09-19T17:04:54.915Z,11.22
2018-09-19T17:06:58.255Z,12.50
2018-09-19T17:09:01.591Z,11.65
2018-09-19T17:11:04.895Z,9.88
2018-09-19T17:13:08.279Z,12.40
2018-09-19T17:15:11.633Z,12.03
2018-09-19T17:17:14.950Z,14.85
2018-09-19T17:19:18.416Z,26.95
2018-09-19T17:21:21.878Z,11.73
2018-09-19T17:23:25.332Z,12.82
2018-09-19T17:25:28.738Z,10.72
2018-09-19T17:27:32.051Z,15.80
2018-09-19T17:29:35.504Z,12.95
2018-09-19T17:31:38.803Z,12.75
2018-09-19T17:33:42.147Z,9.73
2018-09-19T17:35:45.463Z,12.28
2018-09-19T17:37:49.224Z,8.58
2018-09-19T17:39:52.738Z,11.68
2018-09-19T17:41:56.248Z,10.90
2018-09-19T17:43:59.817Z,8.43
2018-09-19T17:46:03.161Z,12.60
2018-09-19T17:48:06.496Z,12.25
2018-09-19T17:50:09.836Z,11.78
2018-09-19T17:52:13.184Z,10.20
2018-09-19T17:54:16.738Z,11.48
2018-09-19T17:56:20.178Z,11.00
2018-09-19T17:58:23.620Z,9.95
2018-09-19T18:00:26.960Z,9.78
2018-09-19T18:02:30.285Z,9.60
2018-09-19T18:04:33.707Z,11.63
2018-09-19T18:06:37.071Z,12.37
2018-09-19T18:08:40.436Z,8.28
2018-09-19T18:10:43.810Z,11.70
2018-09-19T18:12:48.226Z,11.22
2018-09-19T18:14:51.752Z,8.75
2018-09-19T18:16:55.963Z,11.03
2018-09-19T18:18:59.281Z,10.85
2018-09-19T18:21:02.667Z,10.48
2018-09-19T18:23:06.076Z,9.28
2018-09-19T18:25:09.383Z,7.83
2018-09-19T18:27:12.919Z,12.55
2018-09-19T18:29:17.244Z,9.20
2018-09-19T18:31:21.108Z,12.15
2018-09-19T18:33:24.546Z,16.25
2018-09-19T18:35:27.883Z,10.93
2018-09-19T18:37:31.208Z,8.60
2018-09-19T18:39:34.491Z,14.13
2018-09-19T18:41:38.246Z,11.43
2018-09-19T18:43:41.614Z,9.75
2018-09-19T18:45:44.944Z,13.10
2018-09-19T18:47:48.855Z,9.23
2018-09-19T18:49:52.354Z,11.57
2018-09-19T18:51:55.865Z,9.30
2018-09-19T18:54:00.393Z,9.58
2018-09-19T18:56:03.834Z,13.90
2018-09-19T18:58:07.384Z,14.28
2018-09-19T19:00:10.847Z,15.05
2018-09-19T19:02:14.254Z,7.90
2018-09-19T19:04:17.684Z,8.10
2018-09-19T19:06:21.644Z,12.15
2018-09-19T19:08:25.067Z,9.85
2018-09-19T19:10:28.549Z,12.70
2018-09-19T19:12:31.955Z,8.78
2018-09-19T19:14:35.478Z,8.98
2018-09-19T19:16:39.094Z,9.35
2018-09-19T19:18:42.441Z,11.63
2018-09-19T19:20:45.971Z,12.07
2018-09-19T19:22:49.375Z,8.68
2018-09-19T19:24:52.769Z,7.87
2018-09-19T19:26:56.244Z,7.90
2018-09-19T19:28:59.551Z,10.78
2018-09-19T19:31:02.863Z,10.25
2018-09-19T19:33:06.197Z,8.55
2018-09-19T19:35:09.490Z,9.80
2018-09-19T19:37:12.803Z,9.45
2018-09-19T19:39:16.156Z,9.68
2018-09-19T19:41:19.584Z,10.95
2018-09-19T19:43:23.036Z,13.50
2018-09-19T19:45:26.388Z,12.18
2018-09-19T19:47:29.805Z,9.63
2018-09-19T19:49:33.103Z,8.08
2018-09-19T19:51:36.391Z,11.60
2018-09-19T19:53:39.750Z,10.05
2018-09-19T19:55:43.054Z,10.63
2018-09-19T19:57:46.364Z,13.78
2018-09-19T19:59:49.824Z,13.15
2018-09-19T20:01:53.288Z,12.05
2018-09-19T20:03:56.621Z,9.80
2018-09-19T20:05:59.934Z,8.78
2018-09-19T20:08:03.269Z,10.65
2018-09-19T20:10:06.580Z,13.03
2018-09-19T20:12:09.875Z,7.70
2018-09-19T20:14:13.179Z,11.55
2018-09-19T20:16:16.569Z,12.00
2018-09-19T20:18:20.052Z,14.35
2018-09-19T20:20:23.425Z,12.98
2018-09-19T20:22:26.768Z,10.80
2018-09-19T20:24:30.507Z,9.90
2018-09-19T20:26:33.807Z,11.50
2018-09-19T20:28:37.412Z,9.63
2018-09-19T20:30:40.778Z,10.03
2018-09-19T20:32:44.069Z,11.38
2018-09-19T20:34:47.468Z,8.43
2018-09-19T20:36:51.841Z,8.65
2018-09-19T20:38:55.228Z,10.53
2018-09-19T20:40:58.601Z,16.90
2018-09-19T20:43:01.895Z,13.40
2018-09-19T20:45:05.455Z,19.37
2018-09-19T20:47:08.791Z,15.00
2018-09-19T20:49:12.166Z,18.92
2018-09-19T20:51:15.492Z,13.15
2018-09-19T20:53:18.946Z,11.55
2018-09-19T20:55:22.471Z,12.73
2018-09-19T20:57:26.096Z,9.75
2018-09-19T20:59:29.624Z,13.53
2018-09-19T21:01:32.912Z,11.88
2018-09-19T21:03:36.243Z,10.45
2018-09-19T21:05:39.559Z,14.10
2018-09-19T21:07:42.972Z,12.93
2018-09-19T21:09:46.281Z,17.65
2018-09-19T21:11:49.686Z,11.20
2018-09-19T21:13:53.484Z,11.85
2018-09-19T21:15:57.019Z,10.78
2018-09-19T21:18:00.452Z,11.60
2018-09-19T21:20:03.773Z,10.03
2018-09-19T21:22:07.176Z,9.95
2018-09-19T21:24:10.391Z,8.83
2018-09-19T21:26:13.715Z,10.25
2018-09-19T21:28:17.099Z,9.93
2018-09-19T21:30:21.837Z,12.18
2018-09-19T21:32:25.274Z,9.83
2018-09-19T21:34:28.732Z,8.43
2018-09-19T21:36:32.207Z,9.70
2018-09-19T21:38:35.538Z,9.93
2018-09-19T21:40:39.309Z,11.35
2018-09-19T21:42:42.797Z,10.72
2018-09-19T21:44:46.108Z,10.20
2018-09-19T21:46:49.512Z,10.72
2018-09-19T21:48:53.541Z,11.00
2018-09-19T21:50:56.875Z,12.85
2018-09-19T21:53:00.815Z,10.15
2018-09-19T21:55:04.138Z,10.78
2018-09-19T21:57:07.428Z,9.05
2018-09-19T21:59:10.720Z,9.60
2018-09-19T22:01:19.592Z,13.45
2018-09-19T22:03:23.055Z,11.08
2018-09-19T22:05:26.430Z,11.00
2018-09-19T22:07:30.113Z,12.68
2018-09-19T22:09:33.417Z,13.78
2018-09-19T22:11:37.096Z,12.60
2018-09-19T22:13:40.492Z,11.70
2018-09-19T22:15:43.926Z,13.93
2018-09-19T22:17:47.260Z,8.90
2018-09-19T22:19:50.768Z,8.08
2018-09-19T22:21:54.161Z,11.50
2018-09-19T22:23:57.469Z,11.85
2018-09-19T22:26:00.809Z,10.28
2018-09-19T22:28:04.135Z,12.33
2018-09-19T22:30:07.512Z,16.55
2018-09-19T22:32:10.787Z,14.18
2018-09-19T22:34:14.083Z,9.18
2018-09-19T22:36:17.404Z,10.95
2018-09-19T22:38:20.806Z,11.73
2018-09-19T22:40:24.310Z,9.00
2018-09-19T22:42:27.602Z,8.98
2018-09-19T22:44:30.890Z,11.12
2018-09-19T22:46:34.219Z,9.90
2018-09-19T22:48:37.507Z,10.55
2018-09-19T22:50:40.802Z,9.50
2018-09-19T22:52:44.107Z,10.82
2018-09-19T22:54:47.478Z,9.73
2018-09-19T22:56:50.865Z,9.85
2018-09-19T23:06:09.040Z,14.87
2018-09-19T23:08:12.408Z,10.48
2018-09-19T23:10:15.736Z,12.10
2018-09-19T23:12:19.618Z,9.48
2018-09-19T23:14:22.959Z,14.80
2018-09-19T23:16:26.346Z,14.47
2018-09-19T23:18:29.766Z,14.68
2018-09-19T23:20:33.078Z,11.03
2018-09-19T23:22:36.400Z,11.90
2018-09-19T23:24:39.759Z,13.75
2018-09-19T23:26:43.050Z,11.97
2018-09-19T23:28:46.359Z,15.32
2018-09-19T23:30:49.659Z,13.58
2018-09-19T23:32:52.995Z,12.00
2018-09-19T23:34:56.332Z,14.35
2018-09-19T23:36:59.627Z,12.10
2018-09-19T23:39:03.107Z,10.58
2018-09-19T23:41:06.500Z,17.48
2018-09-19T23:43:09.775Z,11.22
2018-09-19T23:45:13.177Z,13.78
2018-09-19T23:47:16.503Z,14.40
2018-09-19T23:49:22.311Z,12.37
2018-09-19T23:51:25.635Z,13.35
2018-09-19T23:53:28.927Z,11.83
2018-09-19T23:55:32.223Z,12.00
2018-09-19T23:57:35.509Z,8.95
2018-09-19T23:59:38.855Z,16.10
